sensor_id;sensor_type;location;lat;lon;timestamp;P1;durP1;ratioP1;P2;durP2;ratioP2
37221;SDS011;23119;51.842;-2.230;2023-08-30T00:00:43;6.43;;;0.70;;
37221;SDS011;23119;51.842;-2.230;2023-08-30T00:03:10;5.95;;;0.70;;
37221;SDS011;23119;51.842;-2.230;2023-08-30T00:05:40;9.10;;;0.80;;
37221;SDS011;23119;51.842;-2.230;2023-08-30T00:08:06;6.28;;;0.88;;
37221;SDS011;23119;51.842;-2.230;2023-08-30T00:10:50;10.43;;;0.95;;
37221;SDS011;23119;51.842;-2.230;2023-08-30T00:13:19;6.35;;;0.80;;
37221;SDS011;23119;51.842;-2.230;2023-08-30T00:15:47;6.47;;;0.68;;
37221;SDS011;23119;51.842;-2.230;2023-08-30T00:18:15;6.45;;;0.80;;
37221;SDS011;23119;51.842;-2.230;2023-08-30T00:20:44;6.40;;;0.95;;
37221;SDS011;23119;51.842;-2.230;2023-08-30T00:23:10;4.03;;;0.70;;
37221;SDS011;23119;51.842;-2.230;2023-08-30T00:25:41;8.07;;;0.82;;
37221;SDS011;23119;51.842;-2.230;2023-08-30T00:28:07;5.35;;;0.80;;
37221;SDS011;23119;51.842;-2.230;2023-08-30T00:30:38;4.53;;;0.80;;
37221;SDS011;23119;51.842;-2.230;2023-08-30T00:33:06;4.78;;;0.88;;
37221;SDS011;23119;51.842;-2.230;2023-08-30T00:35:31;4.43;;;0.70;;
37221;SDS011;23119;51.842;-2.230;2023-08-30T00:38:00;4.68;;;0.70;;
37221;SDS011;23119;51.842;-2.230;2023-08-30T00:40:37;2.20;;;0.50;;
37221;SDS011;23119;51.842;-2.230;2023-08-30T00:43:04;3.33;;;0.70;;
37221;SDS011;23119;51.842;-2.230;2023-08-30T00:45:33;4.65;;;0.70;;
37221;SDS011;23119;51.842;-2.230;2023-08-30T00:48:03;9.25;;;0.77;;
37221;SDS011;23119;51.842;-2.230;2023-08-30T00:50:33;9.43;;;0.90;;
37221;SDS011;23119;51.842;-2.230;2023-08-30T00:53:08;6.10;;;0.50;;
37221;SDS011;23119;51.842;-2.230;2023-08-30T00:55:38;11.10;;;0.70;;
37221;SDS011;23119;51.842;-2.230;2023-08-30T00:58:04;7.07;;;0.80;;
37221;SDS011;23119;51.842;-2.230;2023-08-30T01:00:33;5.68;;;0.80;;
37221;SDS011;23119;51.842;-2.230;2023-08-30T01:02:59;5.80;;;0.73;;
37221;SDS011;23119;51.842;-2.230;2023-08-30T01:05:25;6.93;;;1.23;;
37221;SDS011;23119;51.842;-2.230;2023-08-30T01:07:51;6.18;;;1.00;;
37221;SDS011;23119;51.842;-2.230;2023-08-30T01:10:17;8.65;;;1.65;;
37221;SDS011;23119;51.842;-2.230;2023-08-30T01:12:53;10.93;;;2.03;;
37221;SDS011;23119;51.842;-2.230;2023-08-30T01:15:30;5.95;;;0.85;;
37221;SDS011;23119;51.842;-2.230;2023-08-30T01:17:57;7.47;;;0.98;;
37221;SDS011;23119;51.842;-2.230;2023-08-30T01:20:29;5.28;;;1.58;;
37221;SDS011;23119;51.842;-2.230;2023-08-30T01:26:03;4.22;;;1.05;;
37221;SDS011;23119;51.842;-2.230;2023-08-30T01:28:39;6.13;;;0.60;;
37221;SDS011;23119;51.842;-2.230;2023-08-30T01:31:09;12.80;;;1.00;;
37221;SDS011;23119;51.842;-2.230;2023-08-30T01:33:45;6.75;;;0.90;;
37221;SDS011;23119;51.842;-2.230;2023-08-30T01:38:48;9.05;;;0.63;;
37221;SDS011;23119;51.842;-2.230;2023-08-30T01:41:20;6.15;;;0.68;;
37221;SDS011;23119;51.842;-2.230;2023-08-30T01:43:48;5.13;;;0.75;;
37221;SDS011;23119;51.842;-2.230;2023-08-30T01:46:17;6.35;;;0.90;;
37221;SDS011;23119;51.842;-2.230;2023-08-30T01:48:47;11.45;;;1.77;;
37221;SDS011;23119;51.842;-2.230;2023-08-30T01:51:14;7.13;;;0.90;;
37221;SDS011;23119;51.842;-2.230;2023-08-30T01:53:44;12.00;;;0.80;;
37221;SDS011;23119;51.842;-2.230;2023-08-30T01:56:16;10.85;;;1.75;;
37221;SDS011;23119;51.842;-2.230;2023-08-30T01:58:45;6.30;;;0.85;;
37221;SDS011;23119;51.842;-2.230;2023-08-30T02:01:11;6.85;;;1.27;;
37221;SDS011;23119;51.842;-2.230;2023-08-30T02:03:37;4.80;;;0.80;;
37221;SDS011;23119;51.842;-2.230;2023-08-30T02:08:44;10.75;;;1.23;;
37221;SDS011;23119;51.842;-2.230;2023-08-30T02:11:23;10.65;;;0.70;;
37221;SDS011;23119;51.842;-2.230;2023-08-30T02:13:53;7.70;;;0.90;;
37221;SDS011;23119;51.842;-2.230;2023-08-30T02:16:22;7.00;;;0.90;;
37221;SDS011;23119;51.842;-2.230;2023-08-30T02:18:51;9.35;;;1.05;;
37221;SDS011;23119;51.842;-2.230;2023-08-30T02:21:20;7.07;;;1.08;;
37221;SDS011;23119;51.842;-2.230;2023-08-30T02:23:49;7.20;;;0.80;;
37221;SDS011;23119;51.842;-2.230;2023-08-30T02:26:24;9.57;;;0.90;;
37221;SDS011;23119;51.842;-2.230;2023-08-30T02:28:54;8.68;;;0.80;;
37221;SDS011;23119;51.842;-2.230;2023-08-30T02:31:19;8.20;;;1.13;;
37221;SDS011;23119;51.842;-2.230;2023-08-30T02:33:48;6.05;;;0.82;;
37221;SDS011;23119;51.842;-2.230;2023-08-30T02:36:13;6.88;;;1.05;;
37221;SDS011;23119;51.842;-2.230;2023-08-30T02:38:42;7.63;;;0.90;;
37221;SDS011;23119;51.842;-2.230;2023-08-30T02:41:07;10.30;;;1.35;;
37221;SDS011;23119;51.842;-2.230;2023-08-30T02:43:35;4.30;;;1.00;;
37221;SDS011;23119;51.842;-2.230;2023-08-30T02:46:05;4.60;;;0.77;;
37221;SDS011;23119;51.842;-2.230;2023-08-30T02:48:34;8.02;;;1.70;;
37221;SDS011;23119;51.842;-2.230;2023-08-30T02:51:02;6.28;;;0.80;;
37221;SDS011;23119;51.842;-2.230;2023-08-30T02:53:36;8.27;;;0.80;;
37221;SDS011;23119;51.842;-2.230;2023-08-30T02:56:04;5.13;;;0.70;;
37221;SDS011;23119;51.842;-2.230;2023-08-30T02:58:32;12.27;;;0.97;;
37221;SDS011;23119;51.842;-2.230;2023-08-30T03:01:03;8.85;;;0.77;;
37221;SDS011;23119;51.842;-2.230;2023-08-30T03:03:31;4.50;;;0.85;;
37221;SDS011;23119;51.842;-2.230;2023-08-30T03:06:01;7.70;;;0.90;;
37221;SDS011;23119;51.842;-2.230;2023-08-30T03:08:27;4.88;;;0.70;;
37221;SDS011;23119;51.842;-2.230;2023-08-30T03:10:56;4.57;;;0.63;;
37221;SDS011;23119;51.842;-2.230;2023-08-30T03:13:32;5.53;;;1.52;;
37221;SDS011;23119;51.842;-2.230;2023-08-30T03:16:12;8.45;;;0.90;;
37221;SDS011;23119;51.842;-2.230;2023-08-30T03:18:41;10.25;;;0.95;;
37221;SDS011;23119;51.842;-2.230;2023-08-30T03:21:10;10.77;;;0.90;;
37221;SDS011;23119;51.842;-2.230;2023-08-30T03:23:39;6.45;;;0.60;;
37221;SDS011;23119;51.842;-2.230;2023-08-30T03:26:11;9.18;;;2.80;;
37221;SDS011;23119;51.842;-2.230;2023-08-30T03:28:43;10.25;;;2.78;;
37221;SDS011;23119;51.842;-2.230;2023-08-30T03:31:16;5.53;;;1.20;;
37221;SDS011;23119;51.842;-2.230;2023-08-30T03:33:43;5.15;;;0.70;;
37221;SDS011;23119;51.842;-2.230;2023-08-30T03:36:10;5.90;;;0.90;;
37221;SDS011;23119;51.842;-2.230;2023-08-30T03:38:36;7.15;;;1.20;;
37221;SDS011;23119;51.842;-2.230;2023-08-30T03:41:03;5.85;;;0.60;;
37221;SDS011;23119;51.842;-2.230;2023-08-30T03:43:31;5.18;;;0.60;;
37221;SDS011;23119;51.842;-2.230;2023-08-30T03:46:00;6.97;;;1.00;;
37221;SDS011;23119;51.842;-2.230;2023-08-30T03:48:31;9.63;;;0.70;;
37221;SDS011;23119;51.842;-2.230;2023-08-30T03:50:57;5.82;;;0.57;;
37221;SDS011;23119;51.842;-2.230;2023-08-30T03:53:23;10.73;;;0.85;;
37221;SDS011;23119;51.842;-2.230;2023-08-30T03:55:49;9.85;;;1.00;;
37221;SDS011;23119;51.842;-2.230;2023-08-30T03:58:18;6.30;;;1.25;;
37221;SDS011;23119;51.842;-2.230;2023-08-30T04:00:44;4.07;;;1.10;;
37221;SDS011;23119;51.842;-2.230;2023-08-30T04:03:14;7.43;;;0.98;;
37221;SDS011;23119;51.842;-2.230;2023-08-30T04:05:43;8.38;;;1.00;;
37221;SDS011;23119;51.842;-2.230;2023-08-30T04:08:09;6.65;;;1.67;;
37221;SDS011;23119;51.842;-2.230;2023-08-30T04:10:38;5.15;;;0.70;;
37221;SDS011;23119;51.842;-2.230;2023-08-30T04:13:05;3.38;;;0.73;;
37221;SDS011;23119;51.842;-2.230;2023-08-30T04:15:34;6.30;;;0.60;;
37221;SDS011;23119;51.842;-2.230;2023-08-30T04:18:03;3.58;;;1.13;;
37221;SDS011;23119;51.842;-2.230;2023-08-30T04:20:34;5.65;;;0.80;;
37221;SDS011;23119;51.842;-2.230;2023-08-30T04:22:59;5.90;;;0.80;;
37221;SDS011;23119;51.842;-2.230;2023-08-30T04:25:33;8.13;;;0.90;;
37221;SDS011;23119;51.842;-2.230;2023-08-30T04:27:59;6.50;;;0.88;;
37221;SDS011;23119;51.842;-2.230;2023-08-30T04:30:30;5.45;;;0.90;;
37221;SDS011;23119;51.842;-2.230;2023-08-30T04:33:03;4.10;;;0.88;;
37221;SDS011;23119;51.842;-2.230;2023-08-30T04:35:30;6.40;;;0.60;;
37221;SDS011;23119;51.842;-2.230;2023-08-30T04:37:58;6.55;;;0.80;;
37221;SDS011;23119;51.842;-2.230;2023-08-30T04:40:25;3.55;;;0.82;;
37221;SDS011;23119;51.842;-2.230;2023-08-30T04:42:50;8.80;;;0.82;;
37221;SDS011;23119;51.842;-2.230;2023-08-30T04:45:21;6.20;;;0.70;;
37221;SDS011;23119;51.842;-2.230;2023-08-30T04:47:50;5.75;;;0.88;;
37221;SDS011;23119;51.842;-2.230;2023-08-30T04:50:16;6.88;;;1.00;;
37221;SDS011;23119;51.842;-2.230;2023-08-30T04:52:44;8.32;;;1.00;;
37221;SDS011;23119;51.842;-2.230;2023-08-30T04:55:10;5.72;;;0.75;;
37221;SDS011;23119;51.842;-2.230;2023-08-30T04:57:36;4.50;;;0.95;;
37221;SDS011;23119;51.842;-2.230;2023-08-30T05:00:09;3.50;;;0.80;;
37221;SDS011;23119;51.842;-2.230;2023-08-30T05:02:36;5.68;;;0.93;;
37221;SDS011;23119;51.842;-2.230;2023-08-30T05:05:02;6.57;;;1.30;;
37221;SDS011;23119;51.842;-2.230;2023-08-30T05:07:30;5.28;;;1.02;;
37221;SDS011;23119;51.842;-2.230;2023-08-30T05:09:59;5.80;;;0.82;;
37221;SDS011;23119;51.842;-2.230;2023-08-30T05:12:24;7.50;;;0.68;;
37221;SDS011;23119;51.842;-2.230;2023-08-30T05:14:50;4.38;;;0.80;;
37221;SDS011;23119;51.842;-2.230;2023-08-30T05:17:16;4.35;;;0.75;;
37221;SDS011;23119;51.842;-2.230;2023-08-30T05:19:43;12.27;;;0.70;;
37221;SDS011;23119;51.842;-2.230;2023-08-30T05:22:09;5.38;;;0.85;;
37221;SDS011;23119;51.842;-2.230;2023-08-30T05:24:35;6.47;;;0.60;;
37221;SDS011;23119;51.842;-2.230;2023-08-30T05:27:06;5.88;;;0.52;;
37221;SDS011;23119;51.842;-2.230;2023-08-30T05:29:36;8.00;;;0.60;;
37221;SDS011;23119;51.842;-2.230;2023-08-30T05:32:02;4.45;;;0.50;;
37221;SDS011;23119;51.842;-2.230;2023-08-30T05:34:31;11.05;;;1.02;;
37221;SDS011;23119;51.842;-2.230;2023-08-30T05:36:59;5.10;;;1.13;;
37221;SDS011;23119;51.842;-2.230;2023-08-30T05:39:25;5.00;;;0.60;;
37221;SDS011;23119;51.842;-2.230;2023-08-30T05:41:51;4.78;;;0.60;;
37221;SDS011;23119;51.842;-2.230;2023-08-30T05:44:21;5.72;;;0.80;;
37221;SDS011;23119;51.842;-2.230;2023-08-30T05:46:51;7.85;;;0.80;;
37221;SDS011;23119;51.842;-2.230;2023-08-30T05:49:22;7.78;;;0.70;;
37221;SDS011;23119;51.842;-2.230;2023-08-30T05:51:48;4.55;;;0.60;;
37221;SDS011;23119;51.842;-2.230;2023-08-30T05:54:16;2.15;;;0.57;;
37221;SDS011;23119;51.842;-2.230;2023-08-30T05:56:42;7.13;;;1.13;;
37221;SDS011;23119;51.842;-2.230;2023-08-30T05:59:11;6.80;;;0.50;;
37221;SDS011;23119;51.842;-2.230;2023-08-30T06:01:37;3.50;;;0.50;;
37221;SDS011;23119;51.842;-2.230;2023-08-30T06:04:03;5.38;;;0.75;;
37221;SDS011;23119;51.842;-2.230;2023-08-30T06:06:29;4.00;;;0.57;;
37221;SDS011;23119;51.842;-2.230;2023-08-30T06:08:57;3.90;;;0.70;;
37221;SDS011;23119;51.842;-2.230;2023-08-30T06:11:26;4.50;;;0.50;;
37221;SDS011;23119;51.842;-2.230;2023-08-30T06:13:56;5.53;;;0.57;;
37221;SDS011;23119;51.842;-2.230;2023-08-30T06:16:24;2.40;;;0.50;;
37221;SDS011;23119;51.842;-2.230;2023-08-30T06:18:50;4.22;;;0.50;;
37221;SDS011;23119;51.842;-2.230;2023-08-30T06:21:19;6.28;;;0.60;;
37221;SDS011;23119;51.842;-2.230;2023-08-30T06:23:44;4.32;;;0.73;;
37221;SDS011;23119;51.842;-2.230;2023-08-30T06:26:13;4.57;;;0.50;;
37221;SDS011;23119;51.842;-2.230;2023-08-30T06:28:41;9.27;;;0.95;;
37221;SDS011;23119;51.842;-2.230;2023-08-30T06:31:10;11.05;;;3.47;;
37221;SDS011;23119;51.842;-2.230;2023-08-30T06:33:38;12.32;;;5.05;;
37221;SDS011;23119;51.842;-2.230;2023-08-30T06:36:07;10.20;;;4.05;;
37221;SDS011;23119;51.842;-2.230;2023-08-30T06:38:33;12.68;;;5.15;;
37221;SDS011;23119;51.842;-2.230;2023-08-30T06:41:01;5.85;;;2.90;;
37221;SDS011;23119;51.842;-2.230;2023-08-30T06:43:32;7.55;;;3.53;;
37221;SDS011;23119;51.842;-2.230;2023-08-30T06:46:00;9.67;;;1.63;;
37221;SDS011;23119;51.842;-2.230;2023-08-30T06:48:29;7.28;;;2.45;;
37221;SDS011;23119;51.842;-2.230;2023-08-30T06:51:06;5.10;;;1.10;;
37221;SDS011;23119;51.842;-2.230;2023-08-30T06:53:31;5.35;;;0.93;;
37221;SDS011;23119;51.842;-2.230;2023-08-30T06:55:58;3.83;;;0.60;;
37221;SDS011;23119;51.842;-2.230;2023-08-30T06:58:34;3.70;;;0.52;;
37221;SDS011;23119;51.842;-2.230;2023-08-30T07:00:59;4.97;;;0.70;;
37221;SDS011;23119;51.842;-2.230;2023-08-30T07:03:25;4.25;;;0.70;;
37221;SDS011;23119;51.842;-2.230;2023-08-30T07:05:53;4.35;;;0.50;;
37221;SDS011;23119;51.842;-2.230;2023-08-30T07:08:19;3.72;;;0.60;;
37221;SDS011;23119;51.842;-2.230;2023-08-30T07:10:47;2.80;;;0.50;;
37221;SDS011;23119;51.842;-2.230;2023-08-30T07:13:25;8.93;;;0.63;;
37221;SDS011;23119;51.842;-2.230;2023-08-30T07:15:53;6.50;;;0.55;;
37221;SDS011;23119;51.842;-2.230;2023-08-30T07:18:21;6.10;;;0.50;;
37221;SDS011;23119;51.842;-2.230;2023-08-30T07:20:47;6.00;;;0.60;;
37221;SDS011;23119;51.842;-2.230;2023-08-30T07:23:15;4.28;;;0.50;;
37221;SDS011;23119;51.842;-2.230;2023-08-30T07:25:40;4.90;;;0.50;;
37221;SDS011;23119;51.842;-2.230;2023-08-30T07:28:09;4.10;;;0.40;;
37221;SDS011;23119;51.842;-2.230;2023-08-30T07:30:35;3.63;;;0.50;;
37221;SDS011;23119;51.842;-2.230;2023-08-30T07:33:01;4.55;;;0.82;;
37221;SDS011;23119;51.842;-2.230;2023-08-30T07:35:28;3.00;;;0.50;;
37221;SDS011;23119;51.842;-2.230;2023-08-30T07:37:54;4.07;;;0.70;;
37221;SDS011;23119;51.842;-2.230;2023-08-30T07:40:27;4.57;;;0.57;;
37221;SDS011;23119;51.842;-2.230;2023-08-30T07:42:56;3.47;;;0.50;;
37221;SDS011;23119;51.842;-2.230;2023-08-30T07:45:25;2.95;;;0.40;;
37221;SDS011;23119;51.842;-2.230;2023-08-30T07:47:53;4.10;;;0.60;;
37221;SDS011;23119;51.842;-2.230;2023-08-30T07:50:19;5.20;;;0.60;;
37221;SDS011;23119;51.842;-2.230;2023-08-30T07:52:50;0.95;;;0.32;;
37221;SDS011;23119;51.842;-2.230;2023-08-30T07:55:16;3.72;;;0.40;;
37221;SDS011;23119;51.842;-2.230;2023-08-30T07:57:44;3.05;;;0.50;;
37221;SDS011;23119;51.842;-2.230;2023-08-30T08:00:12;4.05;;;0.50;;
37221;SDS011;23119;51.842;-2.230;2023-08-30T08:02:39;3.78;;;0.50;;
37221;SDS011;23119;51.842;-2.230;2023-08-30T08:05:08;3.40;;;0.50;;
37221;SDS011;23119;51.842;-2.230;2023-08-30T08:07:43;3.25;;;0.75;;
37221;SDS011;23119;51.842;-2.230;2023-08-30T08:10:11;3.22;;;0.52;;
37221;SDS011;23119;51.842;-2.230;2023-08-30T08:12:40;2.90;;;0.50;;
37221;SDS011;23119;51.842;-2.230;2023-08-30T08:15:08;3.75;;;0.40;;
37221;SDS011;23119;51.842;-2.230;2023-08-30T08:17:37;3.45;;;0.60;;
37221;SDS011;23119;51.842;-2.230;2023-08-30T08:20:04;4.35;;;0.40;;
37221;SDS011;23119;51.842;-2.230;2023-08-30T08:22:31;2.03;;;0.40;;
37221;SDS011;23119;51.842;-2.230;2023-08-30T08:24:59;3.47;;;0.45;;
37221;SDS011;23119;51.842;-2.230;2023-08-30T08:27:28;2.13;;;0.40;;
37221;SDS011;23119;51.842;-2.230;2023-08-30T08:30:03;2.80;;;0.65;;
37221;SDS011;23119;51.842;-2.230;2023-08-30T08:32:30;2.03;;;0.32;;
37221;SDS011;23119;51.842;-2.230;2023-08-30T08:34:59;4.47;;;0.40;;
37221;SDS011;23119;51.842;-2.230;2023-08-30T08:37:35;3.28;;;0.40;;
37221;SDS011;23119;51.842;-2.230;2023-08-30T08:40:04;2.53;;;0.40;;
37221;SDS011;23119;51.842;-2.230;2023-08-30T08:42:33;1.80;;;0.40;;
37221;SDS011;23119;51.842;-2.230;2023-08-30T08:45:06;3.47;;;0.30;;
37221;SDS011;23119;51.842;-2.230;2023-08-30T08:47:37;3.65;;;0.30;;
37221;SDS011;23119;51.842;-2.230;2023-08-30T08:50:03;3.40;;;0.60;;
37221;SDS011;23119;51.842;-2.230;2023-08-30T08:52:30;1.42;;;0.22;;
37221;SDS011;23119;51.842;-2.230;2023-08-30T08:54:56;2.30;;;0.30;;
37221;SDS011;23119;51.842;-2.230;2023-08-30T08:57:25;3.88;;;0.32;;
37221;SDS011;23119;51.842;-2.230;2023-08-30T08:59:55;1.95;;;0.20;;
37221;SDS011;23119;51.842;-2.230;2023-08-30T09:02:23;7.65;;;0.68;;
37221;SDS011;23119;51.842;-2.230;2023-08-30T09:04:56;1.13;;;0.20;;
37221;SDS011;23119;51.842;-2.230;2023-08-30T09:07:24;3.13;;;0.30;;
37221;SDS011;23119;51.842;-2.230;2023-08-30T09:09:55;3.65;;;0.20;;
37221;SDS011;23119;51.842;-2.230;2023-08-30T09:12:21;1.48;;;0.30;;
37221;SDS011;23119;51.842;-2.230;2023-08-30T09:14:55;3.85;;;0.55;;
37221;SDS011;23119;51.842;-2.230;2023-08-30T09:17:21;1.20;;;0.20;;
37221;SDS011;23119;51.842;-2.230;2023-08-30T09:19:47;0.93;;;0.20;;
37221;SDS011;23119;51.842;-2.230;2023-08-30T09:22:12;3.33;;;0.30;;
37221;SDS011;23119;51.842;-2.230;2023-08-30T09:24:39;1.33;;;0.30;;
37221;SDS011;23119;51.842;-2.230;2023-08-30T09:27:10;3.80;;;0.20;;
37221;SDS011;23119;51.842;-2.230;2023-08-30T09:29:40;1.90;;;0.20;;
37221;SDS011;23119;51.842;-2.230;2023-08-30T09:32:08;1.08;;;0.25;;
37221;SDS011;23119;51.842;-2.230;2023-08-30T09:34:45;3.17;;;0.35;;
37221;SDS011;23119;51.842;-2.230;2023-08-30T09:37:22;1.58;;;0.30;;
37221;SDS011;23119;51.842;-2.230;2023-08-30T09:39:49;1.77;;;0.30;;
37221;SDS011;23119;51.842;-2.230;2023-08-30T09:42:19;1.88;;;0.20;;
37221;SDS011;23119;51.842;-2.230;2023-08-30T09:44:44;3.17;;;0.47;;
37221;SDS011;23119;51.842;-2.230;2023-08-30T09:47:12;2.83;;;0.30;;
37221;SDS011;23119;51.842;-2.230;2023-08-30T09:49:46;1.40;;;0.30;;
37221;SDS011;23119;51.842;-2.230;2023-08-30T09:52:16;1.15;;;0.30;;
37221;SDS011;23119;51.842;-2.230;2023-08-30T09:54:46;0.73;;;0.20;;
37221;SDS011;23119;51.842;-2.230;2023-08-30T09:57:14;2.72;;;0.30;;
37221;SDS011;23119;51.842;-2.230;2023-08-30T09:59:41;3.45;;;0.40;;
37221;SDS011;23119;51.842;-2.230;2023-08-30T10:02:08;2.75;;;0.30;;
37221;SDS011;23119;51.842;-2.230;2023-08-30T10:04:38;0.88;;;0.20;;
37221;SDS011;23119;51.842;-2.230;2023-08-30T10:07:07;2.53;;;0.20;;
37221;SDS011;23119;51.842;-2.230;2023-08-30T10:09:39;1.55;;;0.10;;
37221;SDS011;23119;51.842;-2.230;2023-08-30T10:12:06;2.60;;;0.30;;
37221;SDS011;23119;51.842;-2.230;2023-08-30T10:14:37;1.70;;;0.13;;
37221;SDS011;23119;51.842;-2.230;2023-08-30T10:17:03;0.90;;;0.20;;
37221;SDS011;23119;51.842;-2.230;2023-08-30T10:19:37;1.83;;;0.20;;
37221;SDS011;23119;51.842;-2.230;2023-08-30T10:22:06;3.40;;;0.28;;
37221;SDS011;23119;51.842;-2.230;2023-08-30T10:28:00;1.20;;;0.10;;
37221;SDS011;23119;51.842;-2.230;2023-08-30T10:30:26;1.10;;;0.10;;
37221;SDS011;23119;51.842;-2.230;2023-08-30T10:32:53;2.70;;;0.10;;
37221;SDS011;23119;51.842;-2.230;2023-08-30T10:35:21;2.40;;;0.30;;
37221;SDS011;23119;51.842;-2.230;2023-08-30T10:37:53;2.20;;;0.20;;
37221;SDS011;23119;51.842;-2.230;2023-08-30T10:40:25;1.75;;;0.20;;
37221;SDS011;23119;51.842;-2.230;2023-08-30T10:43:03;0.65;;;0.20;;
37221;SDS011;23119;51.842;-2.230;2023-08-30T10:45:31;3.73;;;0.30;;
37221;SDS011;23119;51.842;-2.230;2023-08-30T10:48:06;2.67;;;0.50;;
37221;SDS011;23119;51.842;-2.230;2023-08-30T10:50:36;7.35;;;0.20;;
37221;SDS011;23119;51.842;-2.230;2023-08-30T10:53:12;0.47;;;0.08;;
37221;SDS011;23119;51.842;-2.230;2023-08-30T10:56:02;2.92;;;0.10;;
37221;SDS011;23119;51.842;-2.230;2023-08-30T10:58:28;0.98;;;0.10;;
37221;SDS011;23119;51.842;-2.230;2023-08-30T11:01:06;0.70;;;0.17;;
37221;SDS011;23119;51.842;-2.230;2023-08-30T11:03:37;1.10;;;0.13;;
37221;SDS011;23119;51.842;-2.230;2023-08-30T11:06:10;2.15;;;0.10;;
37221;SDS011;23119;51.842;-2.230;2023-08-30T11:08:44;0.40;;;0.20;;
37221;SDS011;23119;51.842;-2.230;2023-08-30T11:11:15;2.90;;;0.15;;
37221;SDS011;23119;51.842;-2.230;2023-08-30T11:13:44;0.98;;;0.10;;
37221;SDS011;23119;51.842;-2.230;2023-08-30T11:16:12;1.02;;;0.40;;
37221;SDS011;23119;51.842;-2.230;2023-08-30T11:18:41;5.70;;;0.28;;
37221;SDS011;23119;51.842;-2.230;2023-08-30T11:21:08;2.15;;;0.20;;
37221;SDS011;23119;51.842;-2.230;2023-08-30T11:23:40;1.50;;;0.30;;
37221;SDS011;23119;51.842;-2.230;2023-08-30T11:26:06;2.17;;;0.38;;
37221;SDS011;23119;51.842;-2.230;2023-08-30T11:28:32;4.60;;;0.30;;
37221;SDS011;23119;51.842;-2.230;2023-08-30T11:30:58;1.17;;;0.20;;
37221;SDS011;23119;51.842;-2.230;2023-08-30T11:33:26;0.60;;;0.10;;
37221;SDS011;23119;51.842;-2.230;2023-08-30T11:35:52;1.00;;;0.25;;
37221;SDS011;23119;51.842;-2.230;2023-08-30T11:38:18;1.23;;;0.17;;
37221;SDS011;23119;51.842;-2.230;2023-08-30T11:40:48;2.60;;;0.20;;
37221;SDS011;23119;51.842;-2.230;2023-08-30T11:43:19;1.77;;;0.28;;
37221;SDS011;23119;51.842;-2.230;2023-08-30T11:45:46;1.40;;;0.20;;
37221;SDS011;23119;51.842;-2.230;2023-08-30T11:48:12;2.50;;;0.20;;
37221;SDS011;23119;51.842;-2.230;2023-08-30T11:50:38;0.77;;;0.10;;
37221;SDS011;23119;51.842;-2.230;2023-08-30T11:53:04;1.45;;;0.20;;
37221;SDS011;23119;51.842;-2.230;2023-08-30T11:55:32;1.35;;;0.10;;
37221;SDS011;23119;51.842;-2.230;2023-08-30T11:58:01;0.45;;;0.10;;
37221;SDS011;23119;51.842;-2.230;2023-08-30T12:00:32;0.50;;;0.10;;
37221;SDS011;23119;51.842;-2.230;2023-08-30T12:02:59;1.95;;;0.10;;
37221;SDS011;23119;51.842;-2.230;2023-08-30T12:05:27;0.63;;;0.10;;
37221;SDS011;23119;51.842;-2.230;2023-08-30T12:07:59;2.10;;;0.20;;
37221;SDS011;23119;51.842;-2.230;2023-08-30T12:10:26;8.85;;;0.95;;
37221;SDS011;23119;51.842;-2.230;2023-08-30T12:12:57;3.33;;;0.35;;
37221;SDS011;23119;51.842;-2.230;2023-08-30T12:15:22;1.58;;;0.30;;
37221;SDS011;23119;51.842;-2.230;2023-08-30T12:17:52;1.40;;;0.25;;
37221;SDS011;23119;51.842;-2.230;2023-08-30T12:20:17;0.43;;;0.10;;
37221;SDS011;23119;51.842;-2.230;2023-08-30T12:22:51;2.30;;;0.20;;
37221;SDS011;23119;51.842;-2.230;2023-08-30T12:25:22;0.98;;;0.15;;
37221;SDS011;23119;51.842;-2.230;2023-08-30T12:27:48;1.95;;;0.20;;
37221;SDS011;23119;51.842;-2.230;2023-08-30T12:30:14;1.00;;;0.13;;
37221;SDS011;23119;51.842;-2.230;2023-08-30T12:32:44;2.38;;;0.20;;
37221;SDS011;23119;51.842;-2.230;2023-08-30T12:35:10;2.72;;;0.50;;
37221;SDS011;23119;51.842;-2.230;2023-08-30T12:37:36;2.33;;;0.30;;
37221;SDS011;23119;51.842;-2.230;2023-08-30T12:40:05;2.08;;;0.20;;
37221;SDS011;23119;51.842;-2.230;2023-08-30T12:42:31;1.58;;;0.20;;
37221;SDS011;23119;51.842;-2.230;2023-08-30T12:44:58;1.08;;;0.25;;
37221;SDS011;23119;51.842;-2.230;2023-08-30T12:47:26;2.42;;;0.20;;
37221;SDS011;23119;51.842;-2.230;2023-08-30T12:49:51;1.15;;;0.20;;
37221;SDS011;23119;51.842;-2.230;2023-08-30T12:52:17;2.92;;;0.20;;
37221;SDS011;23119;51.842;-2.230;2023-08-30T12:54:45;3.15;;;0.40;;
37221;SDS011;23119;51.842;-2.230;2023-08-30T12:57:19;1.17;;;0.30;;
37221;SDS011;23119;51.842;-2.230;2023-08-30T12:59:44;2.08;;;0.28;;
37221;SDS011;23119;51.842;-2.230;2023-08-30T13:02:15;0.80;;;0.20;;
37221;SDS011;23119;51.842;-2.230;2023-08-30T13:04:46;0.93;;;0.10;;
37221;SDS011;23119;51.842;-2.230;2023-08-30T13:07:15;1.33;;;0.20;;
37221;SDS011;23119;51.842;-2.230;2023-08-30T13:09:41;0.77;;;0.13;;
37221;SDS011;23119;51.842;-2.230;2023-08-30T13:12:11;0.70;;;0.20;;
37221;SDS011;23119;51.842;-2.230;2023-08-30T13:14:39;1.30;;;0.20;;
37221;SDS011;23119;51.842;-2.230;2023-08-30T13:17:05;1.75;;;0.20;;
37221;SDS011;23119;51.842;-2.230;2023-08-30T13:19:33;2.88;;;0.25;;
37221;SDS011;23119;51.842;-2.230;2023-08-30T13:22:02;0.95;;;0.20;;
37221;SDS011;23119;51.842;-2.230;2023-08-30T13:24:28;1.25;;;0.30;;
37221;SDS011;23119;51.842;-2.230;2023-08-30T13:27:03;2.97;;;0.30;;
37221;SDS011;23119;51.842;-2.230;2023-08-30T13:32:00;1.10;;;0.20;;
37221;SDS011;23119;51.842;-2.230;2023-08-30T13:34:25;1.45;;;0.20;;
37221;SDS011;23119;51.842;-2.230;2023-08-30T13:36:53;2.10;;;0.32;;
37221;SDS011;23119;51.842;-2.230;2023-08-30T13:39:19;0.95;;;0.10;;
37221;SDS011;23119;51.842;-2.230;2023-08-30T13:41:47;1.20;;;0.20;;
37221;SDS011;23119;51.842;-2.230;2023-08-30T13:44:15;1.38;;;0.20;;
37221;SDS011;23119;51.842;-2.230;2023-08-30T13:46:43;3.85;;;0.20;;
37221;SDS011;23119;51.842;-2.230;2023-08-30T13:49:12;1.30;;;0.30;;
37221;SDS011;23119;51.842;-2.230;2023-08-30T13:51:38;0.90;;;0.20;;
37221;SDS011;23119;51.842;-2.230;2023-08-30T13:54:13;2.38;;;0.35;;
37221;SDS011;23119;51.842;-2.230;2023-08-30T13:56:39;2.90;;;0.28;;
37221;SDS011;23119;51.842;-2.230;2023-08-30T13:59:09;1.83;;;0.30;;
37221;SDS011;23119;51.842;-2.230;2023-08-30T14:01:35;2.40;;;0.20;;
37221;SDS011;23119;51.842;-2.230;2023-08-30T14:04:01;2.33;;;0.50;;
37221;SDS011;23119;51.842;-2.230;2023-08-30T14:06:29;1.00;;;0.20;;
37221;SDS011;23119;51.842;-2.230;2023-08-30T14:08:58;1.33;;;0.10;;
37221;SDS011;23119;51.842;-2.230;2023-08-30T14:11:26;1.75;;;0.40;;
37221;SDS011;23119;51.842;-2.230;2023-08-30T14:13:54;2.35;;;0.30;;
37221;SDS011;23119;51.842;-2.230;2023-08-30T14:16:26;0.73;;;0.10;;
37221;SDS011;23119;51.842;-2.230;2023-08-30T14:18:54;3.38;;;0.30;;
37221;SDS011;23119;51.842;-2.230;2023-08-30T14:21:20;2.92;;;0.40;;
37221;SDS011;23119;51.842;-2.230;2023-08-30T14:23:46;5.15;;;0.20;;
37221;SDS011;23119;51.842;-2.230;2023-08-30T14:26:11;1.42;;;0.38;;
37221;SDS011;23119;51.842;-2.230;2023-08-30T14:28:41;1.73;;;0.40;;
37221;SDS011;23119;51.842;-2.230;2023-08-30T14:31:12;2.67;;;0.20;;
37221;SDS011;23119;51.842;-2.230;2023-08-30T14:33:42;2.53;;;0.30;;
37221;SDS011;23119;51.842;-2.230;2023-08-30T14:36:11;0.38;;;0.10;;
37221;SDS011;23119;51.842;-2.230;2023-08-30T14:38:38;1.38;;;0.30;;
37221;SDS011;23119;51.842;-2.230;2023-08-30T14:41:08;4.95;;;0.30;;
37221;SDS011;23119;51.842;-2.230;2023-08-30T14:43:37;2.70;;;0.40;;
37221;SDS011;23119;51.842;-2.230;2023-08-30T14:46:06;3.35;;;0.30;;
37221;SDS011;23119;51.842;-2.230;2023-08-30T14:48:34;2.70;;;0.32;;
37221;SDS011;23119;51.842;-2.230;2023-08-30T14:51:05;2.05;;;0.40;;
37221;SDS011;23119;51.842;-2.230;2023-08-30T14:53:39;1.15;;;0.30;;
37221;SDS011;23119;51.842;-2.230;2023-08-30T14:56:10;2.85;;;0.30;;